sensor_id;sensor_type;location;lat;lon;timestamp;P1;durP1;ratioP1;P2;durP2;ratioP2
3081;SDS011;1551;51.046;7.010;2023-03-12T00:02:33;9.27;;;8.27;;
3081;SDS011;1551;51.046;7.010;2023-03-12T00:05:22;5.40;;;4.60;;
3081;SDS011;1551;51.046;7.010;2023-03-12T00:08:13;6.40;;;4.63;;
3081;SDS011;1551;51.046;7.010;2023-03-12T00:11:06;6.55;;;4.82;;
3081;SDS011;1551;51.046;7.010;2023-03-12T00:14:00;6.80;;;6.07;;
3081;SDS011;1551;51.046;7.010;2023-03-12T00:16:49;7.70;;;5.83;;
3081;SDS011;1551;51.046;7.010;2023-03-12T00:19:38;9.07;;;5.72;;
3081;SDS011;1551;51.046;7.010;2023-03-12T00:22:27;8.70;;;5.00;;
3081;SDS011;1551;51.046;7.010;2023-03-12T00:25:16;6.25;;;4.60;;
3081;SDS011;1551;51.046;7.010;2023-03-12T00:28:06;6.30;;;4.40;;
3081;SDS011;1551;51.046;7.010;2023-03-12T00:30:55;7.68;;;5.57;;
3081;SDS011;1551;51.046;7.010;2023-03-12T00:33:46;9.07;;;5.43;;
3081;SDS011;1551;51.046;7.010;2023-03-12T00:36:39;9.52;;;7.85;;
3081;SDS011;1551;51.046;7.010;2023-03-12T00:39:29;10.43;;;8.70;;
3081;SDS011;1551;51.046;7.010;2023-03-12T00:42:18;10.93;;;9.07;;
3081;SDS011;1551;51.046;7.010;2023-03-12T00:45:07;5.93;;;4.85;;
3081;SDS011;1551;51.046;7.010;2023-03-12T00:47:56;6.75;;;4.40;;
3081;SDS011;1551;51.046;7.010;2023-03-12T00:50:45;6.90;;;3.88;;
3081;SDS011;1551;51.046;7.010;2023-03-12T00:53:34;7.82;;;4.00;;
3081;SDS011;1551;51.046;7.010;2023-03-12T00:56:23;8.05;;;3.72;;
3081;SDS011;1551;51.046;7.010;2023-03-12T00:59:13;6.35;;;3.92;;
3081;SDS011;1551;51.046;7.010;2023-03-12T01:02:03;6.28;;;4.43;;
3081;SDS011;1551;51.046;7.010;2023-03-12T01:04:52;4.35;;;3.40;;
3081;SDS011;1551;51.046;7.010;2023-03-12T01:07:41;8.00;;;3.42;;
3081;SDS011;1551;51.046;7.010;2023-03-12T01:10:31;5.78;;;4.10;;
3081;SDS011;1551;51.046;7.010;2023-03-12T01:13:20;5.85;;;3.85;;
3081;SDS011;1551;51.046;7.010;2023-03-12T01:16:10;6.30;;;3.53;;
3081;SDS011;1551;51.046;7.010;2023-03-12T01:19:00;6.78;;;3.97;;
3081;SDS011;1551;51.046;7.010;2023-03-12T01:21:49;6.70;;;5.47;;
3081;SDS011;1551;51.046;7.010;2023-03-12T01:24:38;9.68;;;5.40;;
3081;SDS011;1551;51.046;7.010;2023-03-12T01:27:27;6.95;;;4.70;;
3081;SDS011;1551;51.046;7.010;2023-03-12T01:30:16;5.80;;;3.45;;
3081;SDS011;1551;51.046;7.010;2023-03-12T01:33:06;5.03;;;3.80;;
3081;SDS011;1551;51.046;7.010;2023-03-12T01:35:55;6.35;;;3.10;;
3081;SDS011;1551;51.046;7.010;2023-03-12T01:38:44;6.22;;;3.20;;
3081;SDS011;1551;51.046;7.010;2023-03-12T01:41:33;5.95;;;2.95;;
3081;SDS011;1551;51.046;7.010;2023-03-12T01:44:22;7.13;;;3.33;;
3081;SDS011;1551;51.046;7.010;2023-03-12T01:47:12;5.80;;;3.20;;
3081;SDS011;1551;51.046;7.010;2023-03-12T01:50:01;6.43;;;3.40;;
3081;SDS011;1551;51.046;7.010;2023-03-12T01:52:51;7.70;;;3.43;;
3081;SDS011;1551;51.046;7.010;2023-03-12T01:55:40;6.93;;;3.40;;
3081;SDS011;1551;51.046;7.010;2023-03-12T01:58:29;5.05;;;3.20;;
3081;SDS011;1551;51.046;7.010;2023-03-12T02:01:22;5.70;;;3.00;;
3081;SDS011;1551;51.046;7.010;2023-03-12T02:04:12;4.40;;;3.13;;
3081;SDS011;1551;51.046;7.010;2023-03-12T02:07:12;5.50;;;2.80;;
3081;SDS011;1551;51.046;7.010;2023-03-12T02:10:04;5.25;;;3.05;;
3081;SDS011;1551;51.046;7.010;2023-03-12T02:12:53;6.20;;;3.10;;
3081;SDS011;1551;51.046;7.010;2023-03-12T02:15:43;4.55;;;2.70;;
3081;SDS011;1551;51.046;7.010;2023-03-12T02:18:33;4.32;;;2.70;;
3081;SDS011;1551;51.046;7.010;2023-03-12T02:21:28;5.65;;;2.92;;
3081;SDS011;1551;51.046;7.010;2023-03-12T02:24:43;5.00;;;3.65;;
3081;SDS011;1551;51.046;7.010;2023-03-12T02:27:44;7.63;;;3.10;;
3081;SDS011;1551;51.046;7.010;2023-03-12T02:30:34;6.20;;;2.70;;
3081;SDS011;1551;51.046;7.010;2023-03-12T02:33:24;5.57;;;3.00;;
3081;SDS011;1551;51.046;7.010;2023-03-12T02:36:13;5.60;;;2.40;;
3081;SDS011;1551;51.046;7.010;2023-03-12T02:39:03;6.00;;;3.20;;
3081;SDS011;1551;51.046;7.010;2023-03-12T02:41:54;5.28;;;2.80;;
3081;SDS011;1551;51.046;7.010;2023-03-12T02:44:46;7.30;;;3.10;;
3081;SDS011;1551;51.046;7.010;2023-03-12T02:47:35;6.80;;;3.00;;
3081;SDS011;1551;51.046;7.010;2023-03-12T02:50:24;5.05;;;2.78;;
3081;SDS011;1551;51.046;7.010;2023-03-12T02:53:13;7.90;;;3.10;;
3081;SDS011;1551;51.046;7.010;2023-03-12T02:56:03;5.80;;;3.10;;
3081;SDS011;1551;51.046;7.010;2023-03-12T02:58:52;3.90;;;2.38;;
3081;SDS011;1551;51.046;7.010;2023-03-12T03:01:42;5.50;;;1.90;;
3081;SDS011;1551;51.046;7.010;2023-03-12T03:04:31;3.90;;;2.40;;
3081;SDS011;1551;51.046;7.010;2023-03-12T03:07:23;5.30;;;2.65;;
3081;SDS011;1551;51.046;7.010;2023-03-12T03:10:12;4.80;;;2.78;;
3081;SDS011;1551;51.046;7.010;2023-03-12T03:13:03;5.88;;;2.47;;
3081;SDS011;1551;51.046;7.010;2023-03-12T03:15:51;4.93;;;2.70;;
3081;SDS011;1551;51.046;7.010;2023-03-12T03:18:40;5.20;;;2.75;;
3081;SDS011;1551;51.046;7.010;2023-03-12T03:21:29;4.60;;;2.85;;
3081;SDS011;1551;51.046;7.010;2023-03-12T03:24:19;7.53;;;3.22;;
3081;SDS011;1551;51.046;7.010;2023-03-12T03:27:08;4.60;;;3.17;;
3081;SDS011;1551;51.046;7.010;2023-03-12T03:29:57;6.50;;;2.80;;
3081;SDS011;1551;51.046;7.010;2023-03-12T03:32:47;5.30;;;2.60;;
3081;SDS011;1551;51.046;7.010;2023-03-12T03:35:38;6.32;;;2.88;;
3081;SDS011;1551;51.046;7.010;2023-03-12T03:38:28;4.32;;;2.90;;
3081;SDS011;1551;51.046;7.010;2023-03-12T03:41:19;4.03;;;2.42;;
3081;SDS011;1551;51.046;7.010;2023-03-12T03:44:09;7.25;;;3.08;;
3081;SDS011;1551;51.046;7.010;2023-03-12T03:47:00;6.05;;;2.72;;
3081;SDS011;1551;51.046;7.010;2023-03-12T03:49:50;5.95;;;2.88;;
3081;SDS011;1551;51.046;7.010;2023-03-12T03:52:39;4.32;;;2.60;;
3081;SDS011;1551;51.046;7.010;2023-03-12T03:55:28;5.45;;;2.83;;
3081;SDS011;1551;51.046;7.010;2023-03-12T03:58:17;4.40;;;2.30;;
3081;SDS011;1551;51.046;7.010;2023-03-12T04:01:06;5.22;;;2.70;;
3081;SDS011;1551;51.046;7.010;2023-03-12T04:03:56;5.70;;;3.20;;
3081;SDS011;1551;51.046;7.010;2023-03-12T04:06:46;3.80;;;2.13;;
3081;SDS011;1551;51.046;7.010;2023-03-12T04:09:36;6.70;;;2.13;;
3081;SDS011;1551;51.046;7.010;2023-03-12T04:12:25;5.60;;;2.60;;
3081;SDS011;1551;51.046;7.010;2023-03-12T04:15:15;4.82;;;2.10;;
3081;SDS011;1551;51.046;7.010;2023-03-12T04:18:05;5.83;;;2.43;;
3081;SDS011;1551;51.046;7.010;2023-03-12T04:20:54;3.60;;;2.23;;
3081;SDS011;1551;51.046;7.010;2023-03-12T04:23:44;5.68;;;2.33;;
3081;SDS011;1551;51.046;7.010;2023-03-12T04:26:35;5.45;;;2.03;;
3081;SDS011;1551;51.046;7.010;2023-03-12T04:29:26;6.10;;;2.60;;
3081;SDS011;1551;51.046;7.010;2023-03-12T04:32:17;6.30;;;2.20;;
3081;SDS011;1551;51.046;7.010;2023-03-12T04:35:07;5.00;;;2.60;;
3081;SDS011;1551;51.046;7.010;2023-03-12T04:37:56;4.57;;;2.40;;
3081;SDS011;1551;51.046;7.010;2023-03-12T04:40:46;4.38;;;2.30;;
3081;SDS011;1551;51.046;7.010;2023-03-12T04:43:36;3.10;;;1.98;;
3081;SDS011;1551;51.046;7.010;2023-03-12T04:46:25;9.27;;;2.80;;
3081;SDS011;1551;51.046;7.010;2023-03-12T04:49:14;4.63;;;2.22;;
3081;SDS011;1551;51.046;7.010;2023-03-12T04:52:04;5.32;;;2.38;;
3081;SDS011;1551;51.046;7.010;2023-03-12T04:54:54;4.32;;;2.22;;
3081;SDS011;1551;51.046;7.010;2023-03-12T04:57:43;7.25;;;2.22;;
3081;SDS011;1551;51.046;7.010;2023-03-12T05:00:33;6.82;;;2.85;;
3081;SDS011;1551;51.046;7.010;2023-03-12T05:03:22;5.13;;;2.15;;
3081;SDS011;1551;51.046;7.010;2023-03-12T05:06:11;5.72;;;2.10;;
3081;SDS011;1551;51.046;7.010;2023-03-12T05:09:01;5.95;;;2.38;;
3081;SDS011;1551;51.046;7.010;2023-03-12T05:11:52;6.15;;;2.45;;
3081;SDS011;1551;51.046;7.010;2023-03-12T05:14:43;4.80;;;2.30;;
3081;SDS011;1551;51.046;7.010;2023-03-12T05:17:32;4.40;;;2.33;;
3081;SDS011;1551;51.046;7.010;2023-03-12T05:20:21;6.50;;;3.30;;
3081;SDS011;1551;51.046;7.010;2023-03-12T05:23:11;4.22;;;2.45;;
3081;SDS011;1551;51.046;7.010;2023-03-12T05:26:00;7.20;;;2.30;;
3081;SDS011;1551;51.046;7.010;2023-03-12T05:28:50;4.85;;;2.30;;
3081;SDS011;1551;51.046;7.010;2023-03-12T05:31:42;5.00;;;2.67;;
3081;SDS011;1551;51.046;7.010;2023-03-12T05:34:32;4.60;;;2.30;;
3081;SDS011;1551;51.046;7.010;2023-03-12T05:37:22;6.10;;;2.30;;
3081;SDS011;1551;51.046;7.010;2023-03-12T05:40:12;4.88;;;2.40;;
3081;SDS011;1551;51.046;7.010;2023-03-12T05:43:01;7.82;;;2.83;;
3081;SDS011;1551;51.046;7.010;2023-03-12T05:45:50;5.05;;;2.13;;
3081;SDS011;1551;51.046;7.010;2023-03-12T05:48:41;6.32;;;2.40;;
3081;SDS011;1551;51.046;7.010;2023-03-12T05:51:30;5.45;;;2.20;;
3081;SDS011;1551;51.046;7.010;2023-03-12T05:54:19;6.15;;;2.75;;
3081;SDS011;1551;51.046;7.010;2023-03-12T05:57:11;5.95;;;2.50;;
3081;SDS011;1551;51.046;7.010;2023-03-12T06:00:01;6.35;;;2.47;;
3081;SDS011;1551;51.046;7.010;2023-03-12T06:02:50;5.30;;;2.70;;
3081;SDS011;1551;51.046;7.010;2023-03-12T06:05:39;4.13;;;2.50;;
3081;SDS011;1551;51.046;7.010;2023-03-12T06:08:28;6.13;;;2.70;;
3081;SDS011;1551;51.046;7.010;2023-03-12T06:11:17;6.63;;;2.30;;
3081;SDS011;1551;51.046;7.010;2023-03-12T06:14:06;5.67;;;2.50;;
3081;SDS011;1551;51.046;7.010;2023-03-12T06:16:57;4.10;;;2.30;;
3081;SDS011;1551;51.046;7.010;2023-03-12T06:19:49;5.47;;;2.60;;
3081;SDS011;1551;51.046;7.010;2023-03-12T06:22:39;4.78;;;2.75;;
3081;SDS011;1551;51.046;7.010;2023-03-12T06:25:28;4.20;;;2.85;;
3081;SDS011;1551;51.046;7.010;2023-03-12T06:28:17;4.95;;;2.70;;
3081;SDS011;1551;51.046;7.010;2023-03-12T06:31:06;6.35;;;2.40;;
3081;SDS011;1551;51.046;7.010;2023-03-12T06:33:58;5.30;;;2.90;;
3081;SDS011;1551;51.046;7.010;2023-03-12T06:36:47;8.10;;;3.13;;
3081;SDS011;1551;51.046;7.010;2023-03-12T06:39:36;4.78;;;2.92;;
3081;SDS011;1551;51.046;7.010;2023-03-12T06:42:25;6.03;;;2.83;;
3081;SDS011;1551;51.046;7.010;2023-03-12T06:45:14;5.05;;;2.88;;
3081;SDS011;1551;51.046;7.010;2023-03-12T06:48:03;5.72;;;2.97;;
3081;SDS011;1551;51.046;7.010;2023-03-12T06:50:53;6.60;;;2.90;;
3081;SDS011;1551;51.046;7.010;2023-03-12T06:53:43;5.95;;;3.05;;
3081;SDS011;1551;51.046;7.010;2023-03-12T06:56:33;4.88;;;2.80;;
3081;SDS011;1551;51.046;7.010;2023-03-12T06:59:22;7.10;;;3.00;;
3081;SDS011;1551;51.046;7.010;2023-03-12T07:02:11;5.90;;;3.30;;
3081;SDS011;1551;51.046;7.010;2023-03-12T07:05:00;5.70;;;3.10;;
3081;SDS011;1551;51.046;7.010;2023-03-12T07:07:49;4.60;;;3.25;;
3081;SDS011;1551;51.046;7.010;2023-03-12T07:10:39;7.05;;;3.05;;
3081;SDS011;1551;51.046;7.010;2023-03-12T07:13:28;4.87;;;2.83;;
3081;SDS011;1551;51.046;7.010;2023-03-12T07:16:18;5.57;;;2.93;;
3081;SDS011;1551;51.046;7.010;2023-03-12T07:19:07;5.70;;;2.85;;
3081;SDS011;1551;51.046;7.010;2023-03-12T07:21:56;6.47;;;2.95;;
3081;SDS011;1551;51.046;7.010;2023-03-12T07:24:45;6.80;;;3.28;;
3081;SDS011;1551;51.046;7.010;2023-03-12T07:27:34;10.45;;;2.90;;
3081;SDS011;1551;51.046;7.010;2023-03-12T07:30:23;5.00;;;2.92;;
3081;SDS011;1551;51.046;7.010;2023-03-12T07:33:12;5.97;;;3.30;;
3081;SDS011;1551;51.046;7.010;2023-03-12T07:36:01;4.65;;;2.63;;
3081;SDS011;1551;51.046;7.010;2023-03-12T07:38:50;6.28;;;2.70;;
3081;SDS011;1551;51.046;7.010;2023-03-12T07:41:39;4.47;;;2.58;;
3081;SDS011;1551;51.046;7.010;2023-03-12T07:44:31;5.78;;;2.95;;
3081;SDS011;1551;51.046;7.010;2023-03-12T07:47:21;5.55;;;2.65;;
3081;SDS011;1551;51.046;7.010;2023-03-12T07:50:10;4.65;;;2.30;;
3081;SDS011;1551;51.046;7.010;2023-03-12T07:52:59;4.15;;;2.10;;
3081;SDS011;1551;51.046;7.010;2023-03-12T07:55:49;3.80;;;2.20;;
3081;SDS011;1551;51.046;7.010;2023-03-12T07:58:38;8.05;;;3.15;;
3081;SDS011;1551;51.046;7.010;2023-03-12T08:01:27;5.83;;;2.60;;
3081;SDS011;1551;51.046;7.010;2023-03-12T08:04:19;5.80;;;2.67;;
3081;SDS011;1551;51.046;7.010;2023-03-12T08:07:08;7.00;;;2.30;;
3081;SDS011;1551;51.046;7.010;2023-03-12T08:09:58;4.80;;;2.63;;
3081;SDS011;1551;51.046;7.010;2023-03-12T08:12:47;4.95;;;2.40;;
3081;SDS011;1551;51.046;7.010;2023-03-12T08:15:36;5.13;;;2.72;;
3081;SDS011;1551;51.046;7.010;2023-03-12T08:18:25;5.18;;;2.42;;
3081;SDS011;1551;51.046;7.010;2023-03-12T08:21:15;5.88;;;2.50;;
3081;SDS011;1551;51.046;7.010;2023-03-12T08:24:04;6.40;;;2.90;;
3081;SDS011;1551;51.046;7.010;2023-03-12T08:26:53;6.40;;;3.27;;
3081;SDS011;1551;51.046;7.010;2023-03-12T08:29:41;5.30;;;2.80;;
3081;SDS011;1551;51.046;7.010;2023-03-12T08:32:30;8.13;;;3.50;;
3081;SDS011;1551;51.046;7.010;2023-03-12T08:35:19;6.32;;;3.35;;
3081;SDS011;1551;51.046;7.010;2023-03-12T08:38:08;6.40;;;2.80;;
3081;SDS011;1551;51.046;7.010;2023-03-12T08:40:58;4.43;;;2.60;;
3081;SDS011;1551;51.046;7.010;2023-03-12T08:43:48;4.70;;;3.10;;
3081;SDS011;1551;51.046;7.010;2023-03-12T08:46:37;6.95;;;3.03;;
3081;SDS011;1551;51.046;7.010;2023-03-12T08:49:26;9.00;;;3.30;;
3081;SDS011;1551;51.046;7.010;2023-03-12T08:52:16;6.97;;;3.30;;
3081;SDS011;1551;51.046;7.010;2023-03-12T08:55:05;4.13;;;3.20;;
3081;SDS011;1551;51.046;7.010;2023-03-12T08:57:54;7.80;;;3.40;;
3081;SDS011;1551;51.046;7.010;2023-03-12T09:00:44;4.80;;;3.10;;
3081;SDS011;1551;51.046;7.010;2023-03-12T09:03:33;5.30;;;2.70;;
3081;SDS011;1551;51.046;7.010;2023-03-12T09:06:22;4.75;;;3.05;;
3081;SDS011;1551;51.046;7.010;2023-03-12T09:09:11;6.72;;;3.80;;
3081;SDS011;1551;51.046;7.010;2023-03-12T09:12:00;6.53;;;3.93;;
3081;SDS011;1551;51.046;7.010;2023-03-12T09:14:49;4.88;;;3.38;;
3081;SDS011;1551;51.046;7.010;2023-03-12T09:17:39;7.70;;;3.50;;
3081;SDS011;1551;51.046;7.010;2023-03-12T09:20:29;7.43;;;3.85;;
3081;SDS011;1551;51.046;7.010;2023-03-12T09:23:18;7.28;;;4.00;;
3081;SDS011;1551;51.046;7.010;2023-03-12T09:26:08;8.38;;;3.33;;
3081;SDS011;1551;51.046;7.010;2023-03-12T09:28:58;6.80;;;3.75;;
3081;SDS011;1551;51.046;7.010;2023-03-12T09:31:47;6.07;;;3.40;;
3081;SDS011;1551;51.046;7.010;2023-03-12T09:34:36;7.77;;;4.53;;
3081;SDS011;1551;51.046;7.010;2023-03-12T09:37:25;7.30;;;5.80;;
3081;SDS011;1551;51.046;7.010;2023-03-12T09:40:15;7.30;;;3.92;;
3081;SDS011;1551;51.046;7.010;2023-03-12T09:43:10;4.80;;;3.80;;
3081;SDS011;1551;51.046;7.010;2023-03-12T09:46:10;6.80;;;3.80;;
3081;SDS011;1551;51.046;7.010;2023-03-12T09:49:09;6.53;;;4.07;;
3081;SDS011;1551;51.046;7.010;2023-03-12T09:55:20;6.50;;;4.50;;
3081;SDS011;1551;51.046;7.010;2023-03-12T09:58:11;4.93;;;3.80;;
3081;SDS011;1551;51.046;7.010;2023-03-12T10:01:07;7.60;;;5.00;;
3081;SDS011;1551;51.046;7.010;2023-03-12T10:07:06;6.70;;;4.10;;
3081;SDS011;1551;51.046;7.010;2023-03-12T10:13:16;6.57;;;4.32;;
3081;SDS011;1551;51.046;7.010;2023-03-12T10:26:11;8.52;;;5.30;;
3081;SDS011;1551;51.046;7.010;2023-03-12T10:29:18;6.95;;;5.45;;
3081;SDS011;1551;51.046;7.010;2023-03-12T10:35:15;5.07;;;4.57;;
3081;SDS011;1551;51.046;7.010;2023-03-12T10:38:11;5.20;;;4.47;;
3081;SDS011;1551;51.046;7.010;2023-03-12T10:41:15;6.20;;;4.65;;
3081;SDS011;1551;51.046;7.010;2023-03-12T10:44:20;6.97;;;5.40;;
3081;SDS011;1551;51.046;7.010;2023-03-12T10:47:31;7.72;;;4.97;;
3081;SDS011;1551;51.046;7.010;2023-03-12T10:50:25;5.70;;;4.78;;
3081;SDS011;1551;51.046;7.010;2023-03-12T10:53:20;5.80;;;5.05;;
3081;SDS011;1551;51.046;7.010;2023-03-12T10:56:20;6.77;;;5.10;;
3081;SDS011;1551;51.046;7.010;2023-03-12T10:59:08;8.15;;;5.40;;
3081;SDS011;1551;51.046;7.010;2023-03-12T11:02:44;7.15;;;6.00;;
3081;SDS011;1551;51.046;7.010;2023-03-12T11:05:33;6.65;;;5.90;;
3081;SDS011;1551;51.046;7.010;2023-03-12T11:08:25;10.05;;;7.90;;
3081;SDS011;1551;51.046;7.010;2023-03-12T11:11:21;11.13;;;7.45;;
3081;SDS011;1551;51.046;7.010;2023-03-12T11:14:19;7.85;;;5.90;;
3081;SDS011;1551;51.046;7.010;2023-03-12T11:17:23;10.00;;;5.78;;
3081;SDS011;1551;51.046;7.010;2023-03-12T11:23:16;9.13;;;7.15;;
3081;SDS011;1551;51.046;7.010;2023-03-12T11:32:25;9.70;;;7.60;;
3081;SDS011;1551;51.046;7.010;2023-03-12T11:35:25;11.35;;;9.93;;
3081;SDS011;1551;51.046;7.010;2023-03-12T11:38:35;12.98;;;10.43;;
3081;SDS011;1551;51.046;7.010;2023-03-12T11:41:40;11.93;;;9.93;;
3081;SDS011;1551;51.046;7.010;2023-03-12T11:44:46;11.90;;;9.63;;
3081;SDS011;1551;51.046;7.010;2023-03-12T11:48:10;11.50;;;9.40;;
3081;SDS011;1551;51.046;7.010;2023-03-12T11:51:14;12.10;;;10.70;;
3081;SDS011;1551;51.046;7.010;2023-03-12T11:57:13;10.30;;;9.05;;
3081;SDS011;1551;51.046;7.010;2023-03-12T12:06:39;11.98;;;9.00;;
3081;SDS011;1551;51.046;7.010;2023-03-12T12:12:45;12.40;;;9.88;;
3081;SDS011;1551;51.046;7.010;2023-03-12T12:31:39;14.70;;;8.93;;
3081;SDS011;1551;51.046;7.010;2023-03-12T12:37:47;10.30;;;7.80;;
3081;SDS011;1551;51.046;7.010;2023-03-12T12:40:58;14.60;;;8.90;;
3081;SDS011;1551;51.046;7.010;2023-03-12T12:43:57;13.00;;;10.75;;
3081;SDS011;1551;51.046;7.010;2023-03-12T12:46:53;12.05;;;8.00;;
3081;SDS011;1551;51.046;7.010;2023-03-12T12:49:47;13.48;;;8.85;;
3081;SDS011;1551;51.046;7.010;2023-03-12T12:52:39;11.48;;;8.63;;
3081;SDS011;1551;51.046;7.010;2023-03-12T12:55:34;12.87;;;8.27;;
3081;SDS011;1551;51.046;7.010;2023-03-12T13:01:35;13.52;;;9.27;;
3081;SDS011;1551;51.046;7.010;2023-03-12T13:04:28;12.65;;;8.00;;
3081;SDS011;1551;51.046;7.010;2023-03-12T13:10:36;11.75;;;8.40;;
3081;SDS011;1551;51.046;7.010;2023-03-12T13:13:22;14.45;;;9.23;;
3081;SDS011;1551;51.046;7.010;2023-03-12T13:19:23;11.55;;;8.23;;
3081;SDS011;1551;51.046;7.010;2023-03-12T13:37:17;13.90;;;4.40;;
3081;SDS011;1551;51.046;7.010;2023-03-12T13:43:29;13.70;;;4.25;;
3081;SDS011;1551;51.046;7.010;2023-03-12T13:46:36;11.30;;;4.18;;
3081;SDS011;1551;51.046;7.010;2023-03-12T13:49:40;11.10;;;4.57;;
3081;SDS011;1551;51.046;7.010;2023-03-12T13:52:39;12.73;;;4.93;;
3081;SDS011;1551;51.046;7.010;2023-03-12T13:55:37;14.80;;;4.43;;
3081;SDS011;1551;51.046;7.010;2023-03-12T13:58:28;11.05;;;4.30;;
3081;SDS011;1551;51.046;7.010;2023-03-12T14:01:18;13.60;;;4.40;;
3081;SDS011;1551;51.046;7.010;2023-03-12T14:04:10;14.38;;;4.47;;
3081;SDS011;1551;51.046;7.010;2023-03-12T14:14:03;11.52;;;4.10;;
3081;SDS011;1551;51.046;7.010;2023-03-12T14:17:16;13.70;;;4.50;;
3081;SDS011;1551;51.046;7.010;2023-03-12T14:20:20;15.40;;;4.75;;
3081;SDS011;1551;51.046;7.010;2023-03-12T14:23:11;11.45;;;3.88;;
3081;SDS011;1551;51.046;7.010;2023-03-12T14:26:04;12.10;;;4.10;;
3081;SDS011;1551;51.046;7.010;2023-03-12T14:29:03;11.40;;;4.57;;
3081;SDS011;1551;51.046;7.010;2023-03-12T14:31:59;14.13;;;4.50;;
3081;SDS011;1551;51.046;7.010;2023-03-12T14:35:02;14.93;;;4.00;;
3081;SDS011;1551;51.046;7.010;2023-03-12T14:37:55;14.60;;;4.60;;
3081;SDS011;1551;51.046;7.010;2023-03-12T14:40:59;12.52;;;5.22;;
3081;SDS011;1551;51.046;7.010;2023-03-12T14:44:03;12.73;;;3.87;;
3081;SDS011;1551;51.046;7.010;2023-03-12T14:46:58;12.50;;;5.53;;
3081;SDS011;1551;51.046;7.010;2023-03-12T14:49:49;13.37;;;4.00;;
3081;SDS011;1551;51.046;7.010;2023-03-12T14:52:38;15.80;;;4.00;;
3081;SDS011;1551;51.046;7.010;2023-03-12T14:55:27;11.00;;;4.28;;
3081;SDS011;1551;51.046;7.010;2023-03-12T14:58:18;14.73;;;5.10;;
3081;SDS011;1551;51.046;7.010;2023-03-12T15:01:10;11.55;;;4.70;;
3081;SDS011;1551;51.046;7.010;2023-03-12T15:04:02;10.47;;;4.10;;
3081;SDS011;1551;51.046;7.010;2023-03-12T15:06:54;15.13;;;5.40;;
3081;SDS011;1551;51.046;7.010;2023-03-12T15:09:47;13.68;;;4.68;;
3081;SDS011;1551;51.046;7.010;2023-03-12T15:12:38;13.07;;;4.53;;
3081;SDS011;1551;51.046;7.010;2023-03-12T15:15:40;11.90;;;3.42;;
3081;SDS011;1551;51.046;7.010;2023-03-12T15:18:31;13.90;;;4.70;;
3081;SDS011;1551;51.046;7.010;2023-03-12T15:21:20;14.07;;;4.22;;
3081;SDS011;1551;51.046;7.010;2023-03-12T15:24:10;14.70;;;4.05;;
3081;SDS011;1551;51.046;7.010;2023-03-12T15:27:47;14.17;;;4.27;;
3081;SDS011;1551;51.046;7.010;2023-03-12T15:30:22;23.17;;;10.63;;
3081;SDS011;1551;51.046;7.010;2023-03-12T15:42:15;16.25;;;5.25;;
3081;SDS011;1551;51.046;7.010;2023-03-12T15:45:13;12.40;;;4.45;;
3081;SDS011;1551;51.046;7.010;2023-03-12T15:51:26;16.70;;;4.28;;
3081;SDS011;1551;51.046;7.010;2023-03-12T15:57:14;17.83;;;6.50;;
3081;SDS011;1551;51.046;7.010;2023-03-12T16:00:13;15.02;;;4.95;;
3081;SDS011;1551;51.046;7.010;2023-03-12T16:03:14;16.60;;;4.95;;
3081;SDS011;1551;51.046;7.010;2023-03-12T16:06:11;10.80;;;3.90;;
3081;SDS011;1551;51.046;7.010;2023-03-12T16:09:02;14.23;;;5.82;;
3081;SDS011;1551;51.046;7.010;2023-03-12T16:11:52;17.73;;;4.85;;
3081;SDS011;1551;51.046;7.010;2023-03-12T16:14:42;17.83;;;5.53;;
3081;SDS011;1551;51.046;7.010;2023-03-12T16:17:32;15.40;;;5.03;;
3081;SDS011;1551;51.046;7.010;2023-03-12T16:20:21;13.60;;;4.07;;
3081;SDS011;1551;51.046;7.010;2023-03-12T16:23:11;20.45;;;4.80;;
3081;SDS011;1551;51.046;7.010;2023-03-12T16:26:01;16.25;;;4.57;;
3081;SDS011;1551;51.046;7.010;2023-03-12T16:28:52;18.25;;;5.63;;
3081;SDS011;1551;51.046;7.010;2023-03-12T16:31:41;11.82;;;4.70;;
3081;SDS011;1551;51.046;7.010;2023-03-12T16:34:30;12.95;;;5.10;;
3081;SDS011;1551;51.046;7.010;2023-03-12T16:37:19;14.18;;;4.28;;
3081;SDS011;1551;51.046;7.010;2023-03-12T16:40:08;17.27;;;4.13;;
3081;SDS011;1551;51.046;7.010;2023-03-12T16:42:59;16.70;;;5.35;;
3081;SDS011;1551;51.046;7.010;2023-03-12T16:45:51;16.83;;;7.30;;
3081;SDS011;1551;51.046;7.010;2023-03-12T16:48:41;17.48;;;7.30;;
3081;SDS011;1551;51.046;7.010;2023-03-12T16:51:30;16.85;;;6.10;;
3081;SDS011;1551;51.046;7.010;2023-03-12T16:54:19;19.70;;;7.57;;
3081;SDS011;1551;51.046;7.010;2023-03-12T16:57:14;17.30;;;4.73;;
3081;SDS011;1551;51.046;7.010;2023-03-12T17:00:15;16.10;;;6.00;;
3081;SDS011;1551;51.046;7.010;2023-03-12T17:03:10;18.45;;;6.15;;
3081;SDS011;1551;51.046;7.010;2023-03-12T17:06:07;14.00;;;5.60;;
3081;SDS011;1551;51.046;7.010;2023-03-12T17:09:02;16.83;;;6.40;;
3081;SDS011;1551;51.046;7.010;2023-03-12T17:11:51;19.88;;;7.90;;
3081;SDS011;1551;51.046;7.010;2023-03-12T17:14:40;17.98;;;8.15;;
3081;SDS011;1551;51.046;7.010;2023-03-12T17:17:29;17.73;;;7.87;;
3081;SDS011;1551;51.046;7.010;2023-03-12T17:20:20;20.42;;;7.90;;
3081;SDS011;1551;51.046;7.010;2023-03-12T17:23:10;17.77;;;6.97;;
3081;SDS011;1551;51.046;7.010;2023-03-12T17:25:59;18.15;;;5.57;;
3081;SDS011;1551;51.046;7.010;2023-03-12T17:28:48;13.82;;;5.60;;
3081;SDS011;1551;51.046;7.010;2023-03-12T17:31:37;13.20;;;4.75;;
3081;SDS011;1551;51.046;7.010;2023-03-12T17:34:26;18.90;;;7.20;;
3081;SDS011;1551;51.046;7.010;2023-03-12T17:37:15;17.13;;;6.30;;
3081;SDS011;1551;51.046;7.010;2023-03-12T17:40:04;13.68;;;4.68;;
3081;SDS011;1551;51.046;7.010;2023-03-12T17:42:58;14.40;;;4.10;;
3081;SDS011;1551;51.046;7.010;2023-03-12T17:45:46;16.02;;;6.50;;
3081;SDS011;1551;51.046;7.010;2023-03-12T17:48:36;16.60;;;5.82;;
3081;SDS011;1551;51.046;7.010;2023-03-12T17:51:25;17.47;;;6.13;;
3081;SDS011;1551;51.046;7.010;2023-03-12T17:54:14;17.73;;;4.80;;
3081;SDS011;1551;51.046;7.010;2023-03-12T17:57:03;27.63;;;18.15;;
3081;SDS011;1551;51.046;7.010;2023-03-12T17:59:52;12.57;;;5.95;;
3081;SDS011;1551;51.046;7.010;2023-03-12T18:02:41;16.40;;;8.63;;
3081;SDS011;1551;51.046;7.010;2023-03-12T18:05:31;11.02;;;4.10;;
3081;SDS011;1551;51.046;7.010;2023-03-12T18:08:21;11.10;;;4.22;;
3081;SDS011;1551;51.046;7.010;2023-03-12T18:11:10;10.60;;;3.50;;
3081;SDS011;1551;51.046;7.010;2023-03-12T18:13:59;16.48;;;4.75;;
3081;SDS011;1551;51.046;7.010;2023-03-12T18:16:48;12.40;;;3.58;;
3081;SDS011;1551;51.046;7.010;2023-03-12T18:19:37;14.57;;;3.90;;
3081;SDS011;1551;51.046;7.010;2023-03-12T18:22:26;14.38;;;4.20;;
3081;SDS011;1551;51.046;7.010;2023-03-12T18:25:15;16.13;;;4.60;;
3081;SDS011;1551;51.046;7.010;2023-03-12T18:28:04;18.65;;;4.60;;
3081;SDS011;1551;51.046;7.010;2023-03-12T18:30:53;15.32;;;4.80;;
3081;SDS011;1551;51.046;7.010;2023-03-12T18:33:42;13.93;;;4.70;;
3081;SDS011;1551;51.046;7.010;2023-03-12T18:36:31;18.15;;;4.47;;
3081;SDS011;1551;51.046;7.010;2023-03-12T18:39:20;13.98;;;4.60;;
3081;SDS011;1551;51.046;7.010;2023-03-12T18:45:10;16.27;;;4.30;;
3081;SDS011;1551;51.046;7.010;2023-03-12T18:48:00;13.85;;;4.38;;
3081;SDS011;1551;51.046;7.010;2023-03-12T18:50:49;17.27;;;4.90;;
3081;SDS011;1551;51.046;7.010;2023-03-12T18:53:38;14.00;;;4.15;;
3081;SDS011;1551;51.046;7.010;2023-03-12T18:56:27;11.43;;;4.40;;
3081;SDS011;1551;51.046;7.010;2023-03-12T18:59:16;16.60;;;4.82;;
3081;SDS011;1551;51.046;7.010;2023-03-12T19:02:05;15.27;;;5.60;;
3081;SDS011;1551;51.046;7.010;2023-03-12T19:04:54;16.30;;;6.15;;
3081;SDS011;1551;51.046;7.010;2023-03-12T19:07:43;16.20;;;4.93;;
3081;SDS011;1551;51.046;7.010;2023-03-12T19:10:32;17.40;;;5.35;;
3081;SDS011;1551;51.046;7.010;2023-03-12T19:13:21;16.33;;;5.75;;
3081;SDS011;1551;51.046;7.010;2023-03-12T19:16:10;13.82;;;5.88;;
3081;SDS011;1551;51.046;7.010;2023-03-12T19:19:00;17.13;;;4.77;;
3081;SDS011;1551;51.046;7.010;2023-03-12T19:21:49;14.65;;;4.93;;
3081;SDS011;1551;51.046;7.010;2023-03-12T19:24:40;13.10;;;4.30;;
3081;SDS011;1551;51.046;7.010;2023-03-12T19:27:30;17.80;;;5.00;;
3081;SDS011;1551;51.046;7.010;2023-03-12T19:30:19;13.65;;;4.90;;
3081;SDS011;1551;51.046;7.010;2023-03-12T19:33:09;15.20;;;4.75;;
3081;SDS011;1551;51.046;7.010;2023-03-12T19:35:58;14.02;;;4.30;;
3081;SDS011;1551;51.046;7.010;2023-03-12T19:38:47;13.87;;;4.60;;